createdAt,value
2022-08-17T00:00:51.977Z,64.95
2022-08-17T00:03:26.130Z,65.86
2022-08-17T00:06:00.120Z,66.44
2022-08-17T00:08:35.356Z,67.03
2022-08-17T00:11:10.804Z,66.69
2022-08-17T00:13:45.690Z,66.10
2022-08-17T00:16:20.774Z,66.05
2022-08-17T00:19:15.482Z,66.39
2022-08-17T00:22:29.640Z,65.99
2022-08-17T00:24:41.537Z,65.97
2022-08-17T00:27:13.341Z,66.99
2022-08-17T00:29:45.480Z,66.94
2022-08-17T00:33:15.195Z,66.70
2022-08-17T00:35:14.084Z,66.28
2022-08-17T00:37:45.744Z,66.23
2022-08-17T00:40:18.463Z,66.33
2022-08-17T00:42:51.506Z,66.66
2022-08-17T00:45:23.439Z,66.75
2022-08-17T00:47:55.177Z,66.76
2022-08-17T00:50:26.869Z,67.27
2022-08-17T00:53:00.237Z,67.77
2022-08-17T00:55:32.872Z,67.81
2022-08-17T00:58:06.643Z,68.03
2022-08-17T01:00:42.239Z,68.35
2022-08-17T01:03:19.525Z,68.42
2022-08-17T01:05:56.174Z,68.66
2022-08-17T01:08:32.108Z,68.77
2022-08-17T01:11:05.387Z,69.11
2022-08-17T01:13:41.718Z,69.28
2022-08-17T01:16:19.301Z,69.87
2022-08-17T01:18:54.229Z,70.00
2022-08-17T01:21:32.964Z,70.14
2022-08-17T01:24:05.342Z,70.50
2022-08-17T01:26:38.285Z,70.11
2022-08-17T01:29:11.381Z,70.51
2022-08-17T01:31:51.140Z,70.96
2022-08-17T01:34:24.804Z,71.72
2022-08-17T01:37:15.625Z,72.21
2022-08-17T01:39:52.277Z,71.82
2022-08-17T01:42:32.021Z,71.80
2022-08-17T01:45:11.152Z,72.26
2022-08-17T01:47:42.865Z,72.17
2022-08-17T01:50:19.780Z,72.51
2022-08-17T01:52:55.256Z,73.53
2022-08-17T01:55:33.414Z,73.83
2022-08-17T01:58:09.552Z,73.36
2022-08-17T02:00:46.760Z,74.10
2022-08-17T02:03:34.475Z,73.74
2022-08-17T02:06:27.131Z,74.11
2022-08-17T02:09:03.199Z,74.23
2022-08-17T02:11:39.128Z,74.25
2022-08-17T02:14:12.343Z,73.40
2022-08-17T02:16:44.794Z,73.65
2022-08-17T02:19:17.668Z,74.55
2022-08-17T02:21:51.466Z,75.35
2022-08-17T02:25:00.815Z,74.91
2022-08-17T02:27:18.369Z,74.25
2022-08-17T02:29:50.009Z,73.60
2022-08-17T02:32:28.045Z,73.82
2022-08-17T02:35:00.678Z,73.79
2022-08-17T02:37:32.522Z,73.73
2022-08-17T02:40:06.225Z,73.63
2022-08-17T02:42:40.510Z,74.77
2022-08-17T02:45:15.103Z,75.51
2022-08-17T02:47:47.886Z,75.07
2022-08-17T02:50:22.019Z,74.33
2022-08-17T02:53:01.990Z,74.26
2022-08-17T02:55:37.158Z,74.77
2022-08-17T02:58:10.550Z,75.00
2022-08-17T03:00:47.770Z,75.56
2022-08-17T03:03:20.041Z,75.50
2022-08-17T03:05:53.216Z,76.00
2022-08-17T03:08:25.551Z,75.57
2022-08-17T03:10:55.896Z,76.07
2022-08-17T03:13:27.694Z,76.41
2022-08-17T03:15:59.565Z,77.25
2022-08-17T03:18:31.248Z,78.01
2022-08-17T03:21:04.639Z,77.84
2022-08-17T03:23:40.990Z,77.27
2022-08-17T03:26:15.513Z,78.06
2022-08-17T03:28:48.046Z,78.32
2022-08-17T03:31:21.433Z,78.34
2022-08-17T03:33:53.120Z,78.32
2022-08-17T03:36:24.790Z,78.09
2022-08-17T03:38:56.526Z,77.05
2022-08-17T03:41:28.317Z,76.79
2022-08-17T03:44:00.022Z,76.49
2022-08-17T03:46:45.611Z,76.35
2022-08-17T03:49:34.848Z,76.33
2022-08-17T03:52:20.719Z,76.86
2022-08-17T03:55:10.171Z,76.63
2022-08-17T03:57:41.947Z,76.72
2022-08-17T04:00:15.582Z,76.45
2022-08-17T04:02:47.556Z,76.59
2022-08-17T04:05:19.265Z,76.37
2022-08-17T04:07:51.779Z,76.33
2022-08-17T04:10:24.758Z,76.45
2022-08-17T04:12:59.180Z,76.76
2022-08-17T04:15:33.312Z,76.83
2022-08-17T04:18:06.957Z,76.65
2022-08-17T04:20:39.135Z,76.98
2022-08-17T04:23:13.330Z,76.84
2022-08-17T04:25:48.300Z,77.13
2022-08-17T04:28:21.678Z,76.74
2022-08-17T04:30:53.496Z,76.95
2022-08-17T04:33:27.278Z,76.77
2022-08-17T04:36:01.175Z,77.12
2022-08-17T04:38:35.877Z,77.16
2022-08-17T04:41:26.699Z,76.81
2022-08-17T04:43:59.317Z,76.99
2022-08-17T04:46:31.821Z,76.75
2022-08-17T04:49:06.574Z,76.64
2022-08-17T04:51:54.644Z,76.99
2022-08-17T04:54:30.396Z,76.76
2022-08-17T04:57:02.007Z,76.48
2022-08-17T04:59:33.908Z,76.07
2022-08-17T05:02:05.633Z,75.95
2022-08-17T05:04:37.362Z,75.81
2022-08-17T05:07:09.235Z,75.69
2022-08-17T05:09:40.949Z,75.88
2022-08-17T05:12:12.985Z,77.09
2022-08-17T05:14:44.633Z,76.71
2022-08-17T05:17:16.728Z,75.98
2022-08-17T05:19:51.878Z,75.88
2022-08-17T05:22:23.927Z,75.34
2022-08-17T05:24:56.023Z,75.14
2022-08-17T05:27:30.829Z,75.26
2022-08-17T05:30:08.938Z,75.19
2022-08-17T05:32:40.607Z,74.97
2022-08-17T05:35:12.553Z,74.95
2022-08-17T05:37:44.379Z,74.50
2022-08-17T05:40:17.050Z,74.42
2022-08-17T05:42:49.301Z,73.92
2022-08-17T05:45:54.504Z,73.90
2022-08-17T05:48:16.470Z,74.17
2022-08-17T05:50:55.838Z,73.64
2022-08-17T05:53:38.446Z,73.36
2022-08-17T05:56:30.207Z,73.04
2022-08-17T05:59:11.802Z,73.24
2022-08-17T06:01:51.654Z,73.19
2022-08-17T06:04:32.392Z,72.88
2022-08-17T06:07:12.125Z,72.40
2022-08-17T06:09:58.100Z,71.88
2022-08-17T06:12:41.528Z,72.11
2022-08-17T06:15:31.712Z,72.01
2022-08-17T06:18:06.893Z,71.77
2022-08-17T06:20:48.173Z,71.13
2022-08-17T06:23:28.095Z,71.06
2022-08-17T06:26:10.163Z,70.48
2022-08-17T06:28:49.193Z,69.91
2022-08-17T06:31:27.406Z,69.59
2022-08-17T06:34:01.261Z,69.30
2022-08-17T06:36:48.303Z,68.93
2022-08-17T06:39:40.891Z,68.72
2022-08-17T06:43:02.817Z,68.48
2022-08-17T06:45:23.989Z,68.26
2022-08-17T06:48:01.902Z,67.80
2022-08-17T06:50:38.722Z,67.73
2022-08-17T06:53:21.539Z,67.50
2022-08-17T06:55:57.154Z,67.25
2022-08-17T06:58:31.862Z,67.23
2022-08-17T07:01:09.663Z,67.08
2022-08-17T07:03:47.623Z,66.94
2022-08-17T07:06:22.005Z,66.95
2022-08-17T07:09:00.107Z,66.68
2022-08-17T07:11:38.774Z,66.30
2022-08-17T07:14:25.110Z,66.43
2022-08-17T07:16:59.400Z,66.21
2022-08-17T07:19:34.395Z,66.18
2022-08-17T07:22:18.039Z,66.07
2022-08-17T07:24:58.427Z,66.14
2022-08-17T07:27:33.134Z,65.85
2022-08-17T07:30:10.981Z,65.52
2022-08-17T07:32:48.031Z,65.38
2022-08-17T07:35:23.354Z,65.83
2022-08-17T07:38:25.485Z,65.56
2022-08-17T07:41:08.386Z,65.13
2022-08-17T07:43:49.904Z,64.73
2022-08-17T07:46:42.398Z,64.01
2022-08-17T07:49:24.043Z,63.82
2022-08-17T07:52:13.387Z,63.49
2022-08-17T07:54:57.585Z,63.16
2022-08-17T07:57:37.542Z,62.91
2022-08-17T08:00:31.832Z,62.80
2022-08-17T08:03:15.960Z,62.60
2022-08-17T08:06:00.279Z,62.03
2022-08-17T08:08:36.322Z,61.81
2022-08-17T08:11:11.977Z,61.35
2022-08-17T08:13:46.018Z,60.87
2022-08-17T08:16:30.269Z,60.89
2022-08-17T08:19:03.633Z,60.56
2022-08-17T08:21:46.508Z,59.91
2022-08-17T08:24:50.317Z,59.90
2022-08-17T08:27:34.896Z,59.73
2022-08-17T08:30:11.669Z,58.96
2022-08-17T08:33:05.569Z,58.76
2022-08-17T08:35:44.622Z,58.52
2022-08-17T08:38:25.520Z,58.06
2022-08-17T08:41:09.462Z,56.93
2022-08-17T08:43:56.921Z,56.46
2022-08-17T08:46:35.510Z,56.16
2022-08-17T08:50:01.808Z,56.01
2022-08-17T08:52:51.806Z,55.22
2022-08-17T08:55:35.563Z,53.60
2022-08-17T08:58:31.313Z,53.29
2022-08-17T09:01:04.166Z,53.30
2022-08-17T09:04:23.288Z,52.07
2022-08-17T09:07:08.759Z,51.59
2022-08-17T09:09:50.309Z,51.04
2022-08-17T09:12:34.557Z,50.39
2022-08-17T09:15:13.334Z,50.38
2022-08-17T09:18:14.615Z,49.81
2022-08-17T09:20:50.938Z,49.28
2022-08-17T09:23:32.802Z,48.18
2022-08-17T09:26:15.599Z,47.85
2022-08-17T09:28:51.822Z,48.04
2022-08-17T09:31:35.412Z,47.51
2022-08-17T09:34:31.922Z,46.83
2022-08-17T09:37:17.389Z,45.64
2022-08-17T09:39:56.400Z,45.62
2022-08-17T09:42:32.636Z,44.57
2022-08-17T09:45:22.762Z,43.75
2022-08-17T09:48:00.421Z,43.28
2022-08-17T09:51:03.336Z,43.22
2022-08-17T09:53:32.009Z,43.05
2022-08-17T09:56:33.140Z,42.62
2022-08-17T09:59:27.474Z,41.52
2022-08-17T10:02:31.110Z,41.69
2022-08-17T10:05:08.826Z,41.42
2022-08-17T10:07:47.224Z,40.78
2022-08-17T10:10:29.475Z,41.01
2022-08-17T10:13:13.125Z,41.09
2022-08-17T10:15:52.517Z,41.11
2022-08-17T10:18:37.715Z,40.29
2022-08-17T10:21:29.553Z,40.38
2022-08-17T10:24:33.479Z,40.37
2022-08-17T10:27:10.563Z,39.62
2022-08-17T10:29:49.853Z,39.47
2022-08-17T10:32:32.852Z,39.12
2022-08-17T10:35:25.614Z,38.93
2022-08-17T10:38:24.653Z,39.70
2022-08-17T10:41:02.542Z,40.02
2022-08-17T10:43:44.684Z,40.20
2022-08-17T10:46:53.968Z,39.86
2022-08-17T10:49:30.368Z,40.01
2022-08-17T10:52:05.420Z,39.77
2022-08-17T10:54:58.243Z,39.63
2022-08-17T10:57:45.997Z,38.94
2022-08-17T11:01:02.269Z,38.07
2022-08-17T11:03:34.416Z,38.28
2022-08-17T11:06:17.078Z,39.09
2022-08-17T11:09:16.609Z,39.38
2022-08-17T11:12:06.675Z,38.98
2022-08-17T11:15:00.366Z,39.21
2022-08-17T11:17:58.236Z,39.06
2022-08-17T11:21:05.521Z,38.85
2022-08-17T11:24:02.882Z,39.11
2022-08-17T11:26:36.817Z,39.16
2022-08-17T11:29:19.069Z,38.92
2022-08-17T11:32:03.550Z,38.49
2022-08-17T11:34:36.278Z,37.61
2022-08-17T11:37:37.544Z,37.24
2022-08-17T11:40:43.155Z,37.20
2022-08-17T11:43:33.222Z,37.04
2022-08-17T11:46:18.386Z,36.88
2022-08-17T11:49:21.489Z,36.90
2022-08-17T11:52:15.638Z,35.76
2022-08-17T11:54:49.807Z,35.67
2022-08-17T11:58:01.516Z,36.20
2022-08-17T12:00:57.772Z,36.79
2022-08-17T12:03:55.671Z,36.86
2022-08-17T12:06:45.261Z,36.88
2022-08-17T12:09:22.091Z,36.60
2022-08-17T12:12:12.465Z,36.95
2022-08-17T12:15:12.927Z,36.83
2022-08-17T12:17:52.535Z,36.67
2022-08-17T12:20:35.673Z,36.51
2022-08-17T12:23:17.194Z,36.27
2022-08-17T12:25:57.330Z,35.99
2022-08-17T12:28:31.950Z,35.61
2022-08-17T12:31:08.792Z,35.27
2022-08-17T12:33:46.232Z,35.34
2022-08-17T12:36:21.778Z,35.35
2022-08-17T12:39:14.272Z,34.95
2022-08-17T12:42:01.950Z,35.31
2022-08-17T12:44:46.116Z,35.10
2022-08-17T12:47:23.305Z,35.04
2022-08-17T12:50:05.649Z,35.79
2022-08-17T12:52:42.448Z,36.45
2022-08-17T12:55:22.460Z,36.34
2022-08-17T12:57:59.715Z,35.75
2022-08-17T13:00:38.065Z,35.85
2022-08-17T13:03:16.487Z,36.51
2022-08-17T13:05:59.873Z,36.69
2022-08-17T13:08:36.022Z,35.99
2022-08-17T13:11:10.440Z,36.53
2022-08-17T13:13:44.868Z,36.66
2022-08-17T13:16:21.630Z,36.68
2022-08-17T13:18:58.350Z,36.66
2022-08-17T13:21:33.133Z,35.99
2022-08-17T13:24:07.875Z,35.80
2022-08-17T13:26:42.645Z,35.81
2022-08-17T13:29:24.377Z,35.59
2022-08-17T13:32:14.341Z,35.55
2022-08-17T13:35:08.334Z,34.90
2022-08-17T13:37:42.603Z,34.86
2022-08-17T13:40:36.657Z,34.96
2022-08-17T13:43:08.916Z,35.30
2022-08-17T13:45:50.294Z,35.49
2022-08-17T13:48:29.050Z,35.35
2022-08-17T13:51:23.471Z,35.06
2022-08-17T13:54:24.119Z,34.73
2022-08-17T13:57:03.597Z,34.42
2022-08-17T13:59:53.020Z,34.14
2022-08-17T14:02:28.511Z,33.88
2022-08-17T14:05:02.118Z,33.78
2022-08-17T14:07:41.072Z,33.39
2022-08-17T14:10:18.330Z,33.13
2022-08-17T14:12:50.903Z,32.67
2022-08-17T14:15:53.977Z,32.51
2022-08-17T14:18:34.320Z,32.52
2022-08-17T14:21:11.938Z,32.41
2022-08-17T14:23:43.564Z,32.38
2022-08-17T14:26:21.397Z,32.51
2022-08-17T14:28:56.935Z,32.58
2022-08-17T14:31:31.867Z,32.46
2022-08-17T14:34:07.524Z,32.45
2022-08-17T14:36:41.853Z,32.54
2022-08-17T14:39:21.654Z,32.84
2022-08-17T14:41:53.929Z,32.85
2022-08-17T14:44:25.967Z,32.66
2022-08-17T14:46:56.676Z,32.93
2022-08-17T14:49:30.251Z,33.26
2022-08-17T14:52:03.292Z,33.69
2022-08-17T14:54:35.072Z,33.97
2022-08-17T14:57:23.229Z,33.92
2022-08-17T14:59:59.332Z,34.01
2022-08-17T15:02:31.387Z,33.92
2022-08-17T15:05:02.503Z,33.77
2022-08-17T15:07:34.289Z,33.84
2022-08-17T15:10:08.235Z,34.05
2022-08-17T15:12:40.812Z,34.07
2022-08-17T15:15:15.953Z,33.88
2022-08-17T15:17:47.650Z,33.73
2022-08-17T15:20:22.827Z,33.92
2022-08-17T15:22:57.209Z,34.34
2022-08-17T15:25:31.775Z,34.45
2022-08-17T15:28:04.033Z,34.48
2022-08-17T15:30:36.642Z,34.90
2022-08-17T15:33:08.409Z,35.32
2022-08-17T15:35:41.231Z,34.82
2022-08-17T15:38:13.136Z,34.86
2022-08-17T15:40:46.672Z,35.07
2022-08-17T15:43:26.447Z,35.09
2022-08-17T15:46:02.465Z,35.11
2022-08-17T15:48:42.338Z,35.17
2022-08-17T15:51:18.406Z,35.16
2022-08-17T15:53:52.170Z,35.24
2022-08-17T15:56:25.219Z,35.06
2022-08-17T15:58:57.348Z,35.35
2022-08-17T16:01:57.399Z,35.77
2022-08-17T16:04:30.054Z,35.79
2022-08-17T16:07:02.890Z,36.20
2022-08-17T16:09:34.716Z,36.07
2022-08-17T16:12:14.482Z,36.09
2022-08-17T16:14:46.963Z,36.31
2022-08-17T16:17:38.632Z,36.59
2022-08-17T16:20:20.712Z,36.65
2022-08-17T16:22:54.243Z,36.72
2022-08-17T16:25:52.357Z,37.16
2022-08-17T16:28:35.646Z,37.53
2022-08-17T16:31:08.883Z,37.83
2022-08-17T16:33:42.297Z,37.97
2022-08-17T16:36:35.255Z,38.53
2022-08-17T16:39:06.950Z,38.69
2022-08-17T16:41:44.533Z,38.77
2022-08-17T16:44:18.464Z,39.01
2022-08-17T16:46:51.498Z,38.99
2022-08-17T16:49:31.940Z,39.59
2022-08-17T16:52:11.289Z,39.21
2022-08-17T16:54:46.591Z,39.44
2022-08-17T16:57:19.641Z,39.59
2022-08-17T16:59:53.061Z,39.47
2022-08-17T17:02:31.137Z,39.72
2022-08-17T17:05:08.542Z,39.61
2022-08-17T17:07:51.915Z,40.00
2022-08-17T17:10:29.420Z,39.98
2022-08-17T17:13:04.199Z,40.20
2022-08-17T17:15:54.994Z,40.10
2022-08-17T17:18:38.422Z,40.32
2022-08-17T17:21:14.353Z,40.06
2022-08-17T17:23:52.254Z,40.03
2022-08-17T17:26:35.214Z,40.03
2022-08-17T17:29:27.435Z,40.10
2022-08-17T17:32:07.466Z,40.58
2022-08-17T17:34:41.719Z,40.63
2022-08-17T17:37:20.766Z,40.87
2022-08-17T17:39:56.908Z,40.99
2022-08-17T17:42:33.045Z,40.63
2022-08-17T17:45:15.935Z,41.22
2022-08-17T17:47:49.106Z,41.12
2022-08-17T17:50:27.559Z,41.19
2022-08-17T17:53:05.321Z,41.10
2022-08-17T17:56:00.926Z,41.40
2022-08-17T17:58:49.909Z,41.53
2022-08-17T18:01:39.955Z,41.62
2022-08-17T18:04:21.279Z,41.50
2022-08-17T18:07:16.321Z,41.94
2022-08-17T18:10:03.778Z,41.85
2022-08-17T18:12:41.644Z,42.08
2022-08-17T18:15:37.146Z,42.01
2022-08-17T18:18:31.071Z,42.38
2022-08-17T18:21:06.791Z,42.38
2022-08-17T18:23:46.516Z,42.57
2022-08-17T18:26:39.459Z,42.67
2022-08-17T18:29:30.182Z,42.64
2022-08-17T18:32:26.003Z,42.80
2022-08-17T18:35:01.352Z,42.57
2022-08-17T18:37:40.665Z,42.90
2022-08-17T18:40:33.958Z,42.80
2022-08-17T18:43:13.598Z,42.90
2022-08-17T18:45:50.047Z,43.27
2022-08-17T18:48:25.945Z,43.45
2022-08-17T18:51:00.875Z,43.53
2022-08-17T18:53:37.226Z,43.67
2022-08-17T18:56:30.741Z,43.75
2022-08-17T18:59:12.185Z,43.55
2022-08-17T19:02:03.209Z,43.78
2022-08-17T19:04:42.868Z,44.07
2022-08-17T19:07:31.236Z,44.28
2022-08-17T19:10:12.434Z,44.51
2022-08-17T19:12:48.213Z,44.63
2022-08-17T19:15:25.639Z,44.70
2022-08-17T19:18:01.664Z,44.86
2022-08-17T19:20:37.550Z,44.97
2022-08-17T19:23:17.639Z,45.09
2022-08-17T19:25:52.836Z,45.22
2022-08-17T19:28:30.161Z,45.29
2022-08-17T19:31:08.023Z,45.50
2022-08-17T19:33:39.841Z,45.55
2022-08-17T19:36:21.445Z,45.37
2022-08-17T19:39:00.398Z,45.63
2022-08-17T19:41:43.088Z,45.68
2022-08-17T19:44:36.794Z,45.99
2022-08-17T19:47:36.249Z,46.03
2022-08-17T19:50:16.207Z,46.19
2022-08-17T19:52:55.274Z,46.23
2022-08-17T19:55:33.961Z,46.43
2022-08-17T19:58:12.924Z,46.43
2022-08-17T20:00:53.034Z,46.60
2022-08-17T20:03:32.695Z,46.55
2022-08-17T20:06:15.281Z,46.68
2022-08-17T20:08:55.707Z,46.71
2022-08-17T20:11:33.365Z,46.87
2022-08-17T20:14:10.950Z,46.85
2022-08-17T20:16:43.130Z,46.98
2022-08-17T20:19:24.385Z,46.82
2022-08-17T20:22:01.609Z,46.92
2022-08-17T20:24:45.022Z,47.20
2022-08-17T20:27:20.677Z,47.25
2022-08-17T20:30:10.847Z,47.39
2022-08-17T20:32:56.347Z,47.55
2022-08-17T20:35:30.983Z,47.66
2022-08-17T20:38:05.956Z,47.57
2022-08-17T20:41:02.669Z,47.62
2022-08-17T20:44:06.707Z,47.75
2022-08-17T20:47:06.897Z,47.89
2022-08-17T20:49:51.673Z,47.96
2022-08-17T20:52:46.639Z,47.95
2022-08-17T20:55:55.829Z,48.01
2022-08-17T20:58:49.652Z,48.13
2022-08-17T21:01:38.990Z,47.93
2022-08-17T21:04:47.428Z,47.90
2022-08-17T21:07:33.163Z,47.96
2022-08-17T21:10:18.137Z,48.06
2022-08-17T21:12:54.945Z,48.09
2022-08-17T21:15:37.468Z,47.97
2022-08-17T21:18:12.726Z,48.03
2022-08-17T21:21:01.706Z,48.31
2022-08-17T21:23:47.984Z,48.63
2022-08-17T21:26:31.109Z,48.93
2022-08-17T21:29:32.465Z,49.06
2022-08-17T21:32:24.539Z,49.42
2022-08-17T21:35:24.617Z,49.35
2022-08-17T21:38:03.542Z,49.24
2022-08-17T21:40:36.482Z,49.41
2022-08-17T21:43:24.355Z,49.48
2022-08-17T21:46:03.497Z,49.50
2022-08-17T21:48:44.970Z,49.44
2022-08-17T21:51:23.834Z,49.59
2022-08-17T21:53:58.079Z,49.80
2022-08-17T21:56:34.009Z,49.90
2022-08-17T21:59:08.587Z,50.21
2022-08-17T22:01:42.961Z,50.18
2022-08-17T22:04:26.011Z,50.17
2022-08-17T22:06:59.844Z,50.23
2022-08-17T22:09:35.684Z,50.34
2022-08-17T22:12:11.842Z,50.53
2022-08-17T22:14:52.980Z,50.92
2022-08-17T22:17:28.284Z,50.77
2022-08-17T22:20:05.517Z,50.67
2022-08-17T22:23:09.379Z,50.79
2022-08-17T22:25:57.462Z,51.10
2022-08-17T22:28:41.933Z,51.65
2022-08-17T22:31:16.604Z,51.89
2022-08-17T22:33:51.432Z,51.93
2022-08-17T22:36:33.010Z,51.96
2022-08-17T22:39:43.095Z,52.02
2022-08-17T22:42:17.225Z,51.96
2022-08-17T22:44:51.416Z,52.04
2022-08-17T22:47:41.021Z,52.19
2022-08-17T22:50:23.836Z,52.45
2022-08-17T22:53:32.098Z,52.80
2022-08-17T22:56:22.119Z,52.82
2022-08-17T22:59:14.208Z,52.95
2022-08-17T23:02:06.953Z,53.07
2022-08-17T23:04:39.369Z,53.33
2022-08-17T23:07:11.288Z,53.68
2022-08-17T23:09:43.690Z,53.71
2022-08-17T23:12:17.837Z,54.21
2022-08-17T23:14:51.423Z,54.67
2022-08-17T23:17:23.110Z,54.79
2022-08-17T23:19:55.588Z,55.10
2022-08-17T23:22:25.968Z,54.93
2022-08-17T23:24:59.788Z,55.01
2022-08-17T23:27:32.234Z,54.95
2022-08-17T23:30:02.249Z,54.82
2022-08-17T23:32:36.705Z,55.15
2022-08-17T23:35:39.638Z,55.29
2022-08-17T23:38:13.853Z,55.80
2022-08-17T23:40:46.036Z,55.79
2022-08-17T23:43:24.021Z,55.95
2022-08-17T23:45:59.603Z,56.02
2022-08-17T23:48:36.671Z,56.11
2022-08-17T23:51:13.492Z,56.42
2022-08-17T23:53:47.612Z,56.59
2022-08-17T23:56:23.635Z,56.91
2022-08-17T23:58:56.471Z,57.01
